Briarcliff, New York
Current Conditions -  °F | °C
As of 7:56 AM on Sunday 21 Dec 2014 (Local Time) from KHPN Reporting Station
Overcast Overcast  
Wind Chill: -4°   Ceiling: 1100
Heat Index: -1°   Visibility: 8mi
Dew Point: -4°   Wind: 6mph
Humidity: 79%   Direction: 340°NNW
Pressure: 30.27"   Gusts: NA
Location:  41.1414°N, 73.8338°W
Report Text: KHPN 211256Z 34005KT 8SM OVC011 M01/M04 A3027 RMK AO2 SLP258 T10111044
Loading
Personal Weather Stations






























Interactive Weather Map New forecast layout! Learn more

10-Day Weather Forecast

Advertisements
Track Severe Weather on mobile